createdAt,value
2018-09-08T00:00:06.302Z,97492.11
2018-09-08T00:02:41.301Z,97494.34
2018-09-08T00:05:10.547Z,97492.78
2018-09-08T00:07:40.090Z,97490.35
2018-09-08T00:10:12.052Z,97487.39
2018-09-08T00:12:41.276Z,97486.31
2018-09-08T00:15:15.716Z,97484.70
2018-09-08T00:17:49.980Z,97494.27
2018-09-08T00:20:24.198Z,97490.72
2018-09-08T00:23:01.725Z,97497.84
2018-09-08T00:25:36.623Z,97516.13
2018-09-08T00:28:11.012Z,97512.58
2018-09-08T00:30:43.215Z,97513.12
2018-09-08T00:33:12.552Z,97504.24
2018-09-08T00:36:38.768Z,97505.38
2018-09-08T00:39:09.882Z,97512.06
2018-09-08T00:41:39.079Z,97514.01
2018-09-08T00:44:09.871Z,97510.50
2018-09-08T00:46:39.324Z,97512.40
2018-09-08T00:49:09.043Z,97515.16
2018-09-08T00:51:38.433Z,97516.97
2018-09-08T00:54:09.281Z,97522.23
2018-09-08T00:57:37.626Z,97532.80
2018-09-08T01:00:09.600Z,97528.42
2018-09-08T01:03:16.519Z,97524.14
2018-09-08T01:05:47.061Z,97524.84
2018-09-08T01:08:31.265Z,97523.40
2018-09-08T01:11:01.293Z,97532.47
2018-09-08T01:13:30.743Z,97526.56
2018-09-08T01:15:59.959Z,97525.42
2018-09-08T01:18:29.400Z,97530.65
2018-09-08T01:20:58.721Z,97535.84
2018-09-08T01:23:27.943Z,97537.27
2018-09-08T01:27:10.297Z,97535.69
2018-09-08T01:29:40.713Z,97537.84
2018-09-08T01:32:09.857Z,97539.48
2018-09-08T01:34:39.549Z,97514.06
2018-09-08T01:37:08.967Z,97546.87
2018-09-08T01:39:38.330Z,97544.16
2018-09-08T01:42:07.516Z,97550.19
2018-09-08T01:45:19.504Z,97545.83
2018-09-08T01:47:50.321Z,97547.19
2018-09-08T01:50:19.996Z,97553.70
2018-09-08T01:52:49.104Z,97546.09
2018-09-08T01:55:22.054Z,97547.98
2018-09-08T02:01:24.751Z,97553.30
2018-09-08T02:03:54.216Z,97549.03
2018-09-08T02:06:24.808Z,97553.42
2018-09-08T02:08:53.938Z,97551.81
2018-09-08T02:11:25.548Z,97550.33
2018-09-08T02:13:54.782Z,97549.44
2018-09-08T02:16:24.444Z,97545.00
2018-09-08T02:22:06.835Z,97543.38
2018-09-08T02:24:35.983Z,97544.45
2018-09-08T02:27:06.771Z,97543.34
2018-09-08T02:29:35.995Z,97549.03
2018-09-08T02:32:05.059Z,97539.30
2018-09-08T02:34:34.112Z,97546.97
2018-09-08T02:37:03.225Z,97545.39
2018-09-08T02:42:48.531Z,97548.69
2018-09-08T02:45:20.512Z,97549.22
2018-09-08T02:47:49.884Z,97552.44
2018-09-08T02:50:32.901Z,97553.52
2018-09-08T02:53:01.071Z,97549.97
2018-09-08T02:55:29.072Z,97547.50
2018-09-08T02:57:57.179Z,97539.38
2018-09-08T03:00:25.252Z,97537.55
2018-09-08T03:02:52.943Z,97538.13
2018-09-08T03:05:20.762Z,97537.05
2018-09-08T03:07:48.713Z,97533.77
2018-09-08T03:10:20.001Z,97526.23
2018-09-08T03:12:47.575Z,97527.59
2018-09-08T03:15:15.204Z,97535.50
2018-09-08T03:17:42.746Z,97530.91
2018-09-08T03:20:10.292Z,97532.30
2018-09-08T03:22:37.867Z,97530.69
2018-09-08T03:25:05.421Z,97537.77
2018-09-08T03:27:36.297Z,97537.50
2018-09-08T03:30:03.877Z,97541.55
2018-09-08T03:32:31.515Z,97544.27
2018-09-08T03:34:59.085Z,97543.19
2018-09-08T03:37:26.659Z,97548.36
2018-09-08T03:39:54.282Z,97548.94
2018-09-08T03:42:22.350Z,97549.22
2018-09-08T03:44:50.066Z,97551.34
2018-09-08T03:47:17.764Z,97546.45
2018-09-08T03:49:45.307Z,97543.50
2018-09-08T03:52:12.902Z,97554.37
2018-09-08T03:54:40.659Z,97557.93
2018-09-08T03:57:08.196Z,97551.42
2018-09-08T03:59:35.914Z,97560.37
2018-09-08T04:02:03.565Z,97558.20
2018-09-08T04:04:37.221Z,97560.93
2018-09-08T04:07:06.902Z,97563.67
2018-09-08T04:09:36.117Z,97564.22
2018-09-08T04:12:05.285Z,97567.77
2018-09-08T04:14:57.087Z,97559.88
2018-09-08T04:17:26.977Z,97561.50
2018-09-08T04:19:56.188Z,97574.80
2018-09-08T04:22:29.397Z,97577.50
2018-09-08T04:24:58.433Z,97579.39
2018-09-08T04:27:27.323Z,97582.38
2018-09-08T04:29:56.404Z,97588.92
2018-09-08T04:32:25.471Z,97587.30
2018-09-08T04:34:54.501Z,97594.88
2018-09-08T04:37:24.210Z,97606.83
2018-09-08T04:39:53.265Z,97608.20
2018-09-08T04:42:22.891Z,97606.86
2018-09-08T04:44:53.005Z,97613.91
2018-09-08T04:47:22.548Z,97613.10
2018-09-08T04:49:51.658Z,97617.46
2018-09-08T04:52:20.883Z,97613.13
2018-09-08T04:54:50.569Z,97615.55
2018-09-08T04:57:19.651Z,97619.91
2018-09-08T04:59:48.831Z,97623.70
2018-09-08T05:02:17.783Z,97629.41
2018-09-08T05:04:46.911Z,97632.12
2018-09-08T05:07:16.172Z,97639.14
2018-09-08T05:09:45.402Z,97639.41
2018-09-08T05:12:14.446Z,97640.75
2018-09-08T05:14:43.680Z,97645.92
2018-09-08T05:17:12.778Z,97650.78
2018-09-08T05:19:42.189Z,97657.50
2018-09-08T05:22:11.325Z,97658.47
2018-09-08T05:24:40.454Z,97656.95
2018-09-08T05:27:09.621Z,97662.17
2018-09-08T05:29:38.667Z,97662.69
2018-09-08T05:32:07.777Z,97660.11
2018-09-08T05:34:37.001Z,97664.11
2018-09-08T05:37:07.558Z,97669.15
2018-09-08T05:39:36.795Z,97671.78
2018-09-08T05:42:06.714Z,97670.25
2018-09-08T05:44:35.980Z,97673.80
2018-09-08T05:47:05.283Z,97677.62
2018-09-08T05:49:34.377Z,97676.48
2018-09-08T05:52:03.568Z,97667.41
2018-09-08T05:54:32.681Z,97677.95
2018-09-08T05:57:01.697Z,97677.62
2018-09-08T05:59:30.885Z,97681.47
2018-09-08T06:01:59.931Z,97678.74
2018-09-08T06:04:29.024Z,97678.02
2018-09-08T06:07:01.943Z,97674.34
2018-09-08T06:09:31.999Z,97674.05
2018-09-08T06:12:01.181Z,97677.41
2018-09-08T06:14:31.485Z,97681.12
2018-09-08T06:17:00.848Z,97679.48
2018-09-08T06:19:29.914Z,97684.95
2018-09-08T06:21:58.979Z,97683.34
2018-09-08T06:24:28.152Z,97690.05
2018-09-08T06:26:57.150Z,97692.92
2018-09-08T06:29:26.336Z,97694.00
2018-09-08T06:31:55.427Z,97701.17
2018-09-08T06:34:25.027Z,97694.05
2018-09-08T06:36:54.165Z,97695.36
2018-09-08T06:39:23.852Z,97694.44
2018-09-08T06:41:52.913Z,97695.63
2018-09-08T06:44:22.525Z,97690.50
2018-09-08T06:46:51.714Z,97689.34
2018-09-08T06:49:20.665Z,97691.44
2018-09-08T06:51:49.788Z,97693.67
2018-09-08T06:54:18.837Z,97698.15
2018-09-08T06:56:47.772Z,97700.51
2018-09-08T06:59:16.875Z,97696.95
2018-09-08T07:01:45.807Z,97701.61
2018-09-08T07:04:14.834Z,97705.77
2018-09-08T07:06:43.925Z,97707.89
2018-09-08T07:09:12.906Z,97706.33
2018-09-08T07:11:41.879Z,97712.31
2018-09-08T07:14:10.905Z,97712.84
2018-09-08T07:16:39.910Z,97703.98
2018-09-08T07:19:08.863Z,97705.26
2018-09-08T07:21:38.010Z,97705.76
2018-09-08T07:24:07.006Z,97702.38
2018-09-08T07:26:36.084Z,97702.06
2018-09-08T07:29:05.142Z,97700.86
2018-09-08T07:31:34.156Z,97706.59
2018-09-08T07:34:03.164Z,97710.78
2018-09-08T07:36:32.126Z,97710.43
2018-09-08T07:39:01.196Z,97711.98
2018-09-08T07:41:30.120Z,97712.64
2018-09-08T07:43:59.102Z,97719.34
2018-09-08T07:46:28.093Z,97719.06
2018-09-08T07:48:57.095Z,97719.91
2018-09-08T07:51:26.111Z,97728.09
2018-09-08T07:53:55.117Z,97723.99
2018-09-08T07:56:24.497Z,97731.08
2018-09-08T07:58:53.565Z,97729.44
2018-09-08T08:01:22.994Z,97732.70
2018-09-08T08:03:52.011Z,97726.66
2018-09-08T08:06:21.174Z,97705.73
2018-09-08T08:08:50.222Z,97724.08
2018-09-08T08:11:56.150Z,97728.30
2018-09-08T08:14:25.831Z,97724.41
2018-09-08T08:16:54.940Z,97730.20
2018-09-08T08:19:24.362Z,97727.67
2018-09-08T08:21:53.315Z,97735.34
2018-09-08T08:24:22.820Z,97728.75
2018-09-08T08:26:51.874Z,97736.66
2018-09-08T08:29:20.891Z,97734.84
2018-09-08T08:31:49.914Z,97730.95
2018-09-08T08:34:18.975Z,97733.14
2018-09-08T08:36:47.977Z,97724.82
2018-09-08T08:39:17.022Z,97733.81
2018-09-08T08:41:45.974Z,97740.77
2018-09-08T08:44:15.007Z,97740.33
2018-09-08T08:46:47.663Z,97744.84
2018-09-08T08:49:16.664Z,97734.88
2018-09-08T08:52:58.673Z,97742.66
2018-09-08T08:55:27.769Z,97748.59
2018-09-08T08:57:56.732Z,97743.10
2018-09-08T09:00:25.832Z,97745.64
2018-09-08T09:02:54.925Z,97740.89
2018-09-08T09:05:24.259Z,97750.62
2018-09-08T09:07:53.354Z,97745.37
2018-09-08T09:10:23.078Z,97748.56
2018-09-08T09:12:52.076Z,97755.94
2018-09-08T09:15:22.121Z,97752.95
2018-09-08T09:17:50.971Z,97747.83
2018-09-08T09:20:30.912Z,97749.27
2018-09-08T09:23:15.136Z,97754.14
2018-09-08T09:25:43.794Z,97741.88
2018-09-08T09:28:12.862Z,97734.03
2018-09-08T09:30:41.945Z,97738.26
2018-09-08T09:33:11.111Z,97735.06
2018-09-08T09:35:40.314Z,97735.96
2018-09-08T09:38:09.298Z,97730.20
2018-09-08T09:40:38.470Z,97739.20
2018-09-08T09:43:07.529Z,97739.30
2018-09-08T09:45:36.559Z,97742.80
2018-09-08T09:48:05.856Z,97736.71
2018-09-08T09:50:34.801Z,97735.89
2018-09-08T09:53:03.788Z,97727.86
2018-09-08T09:55:32.986Z,97736.74
2018-09-08T09:58:02.055Z,97732.33
2018-09-08T10:00:36.057Z,97727.77
2018-09-08T10:03:06.967Z,97729.78
2018-09-08T10:05:37.082Z,97724.75
2018-09-08T10:08:09.240Z,97725.42
2018-09-08T10:10:38.695Z,97724.72
2018-09-08T10:13:07.749Z,97723.94
2018-09-08T10:15:36.749Z,97721.59
2018-09-08T10:18:05.866Z,97718.70
2018-09-08T10:20:34.943Z,97718.89
2018-09-08T10:23:03.946Z,97713.47
2018-09-08T10:25:37.059Z,97720.08
2018-09-08T10:28:06.477Z,97722.45
2018-09-08T10:30:35.535Z,97721.50
2018-09-08T10:33:04.516Z,97713.03
2018-09-08T10:35:33.700Z,97718.99
2018-09-08T10:38:02.767Z,97723.86
2018-09-08T10:40:31.736Z,97719.88
2018-09-08T10:43:00.757Z,97717.77
2018-09-08T10:45:29.813Z,97714.32
2018-09-08T10:47:59.887Z,97716.00
2018-09-08T10:50:28.811Z,97715.88
2018-09-08T10:52:57.936Z,97715.84
2018-09-08T10:55:27.951Z,97720.83
2018-09-08T10:57:56.902Z,97724.48
2018-09-08T11:00:25.931Z,97730.20
2018-09-08T11:02:55.126Z,97722.60
2018-09-08T11:05:25.980Z,97714.39
2018-09-08T11:19:25.803Z,97715.09
2018-09-08T11:21:54.790Z,97721.39
2018-09-08T11:24:24.460Z,97719.33
2018-09-08T11:26:53.555Z,97722.03
2018-09-08T11:29:22.850Z,97724.98
2018-09-08T11:31:51.891Z,97717.49
2018-09-08T11:34:20.821Z,97718.27
2018-09-08T11:36:49.790Z,97715.79
2018-09-08T11:39:18.832Z,97721.51
2018-09-08T11:41:47.812Z,97719.23
2018-09-08T11:44:16.923Z,97720.23
2018-09-08T11:46:45.915Z,97729.81
2018-09-08T11:49:14.881Z,97727.36
2018-09-08T11:51:44.000Z,97733.83
2018-09-08T11:54:13.005Z,97727.48
2018-09-08T11:56:42.253Z,97727.08
2018-09-08T11:59:11.419Z,97729.18
2018-09-08T12:01:40.549Z,97733.64
2018-09-08T12:04:09.544Z,97732.95
2018-09-08T12:06:38.592Z,97732.52
2018-09-08T12:09:09.868Z,97729.20
2018-09-08T12:11:39.009Z,97731.20
2018-09-08T12:14:08.456Z,97736.95
2018-09-08T12:16:37.471Z,97737.37
2018-09-08T12:19:06.677Z,97734.48
2018-09-08T12:21:35.595Z,97728.21
2018-09-08T12:24:04.570Z,97722.98
2018-09-08T12:26:33.627Z,97720.13
2018-09-08T12:29:02.688Z,97723.68
2018-09-08T12:31:31.680Z,97718.20
2018-09-08T12:34:00.984Z,97720.99
2018-09-08T12:36:29.944Z,97715.49
2018-09-08T12:38:59.021Z,97705.98
2018-09-08T12:41:27.954Z,97710.92
2018-09-08T12:43:56.881Z,97709.98
2018-09-08T12:46:25.826Z,97709.19
2018-09-08T12:48:54.799Z,97707.48
2018-09-08T12:51:24.285Z,97714.22
2018-09-08T12:53:53.258Z,97703.38
2018-09-08T12:56:22.703Z,97708.77
2018-09-08T12:58:51.642Z,97703.70
2018-09-08T13:01:20.633Z,97711.40
2018-09-08T13:03:49.896Z,97713.30
2018-09-08T13:06:18.915Z,97715.27
2018-09-08T13:08:47.961Z,97710.15
2018-09-08T13:11:16.928Z,97707.45
2018-09-08T13:13:45.917Z,97707.02
2018-09-08T13:16:14.935Z,97708.33
2018-09-08T13:18:43.907Z,97714.22
2018-09-08T13:21:12.866Z,97704.91
2018-09-08T13:23:41.850Z,97709.94
2018-09-08T13:26:10.916Z,97708.14
2018-09-08T13:28:40.029Z,97711.22
2018-09-08T13:31:08.977Z,97710.93
2018-09-08T13:33:38.052Z,97707.80
2018-09-08T13:36:07.039Z,97702.13
2018-09-08T13:38:35.987Z,97697.87
2018-09-08T13:41:05.035Z,97700.30
2018-09-08T13:43:34.054Z,97706.72
2018-09-08T13:46:03.010Z,97702.67
2018-09-08T13:48:32.949Z,97704.25
2018-09-08T13:51:01.863Z,97708.19
2018-09-08T13:53:30.811Z,97701.05
2018-09-08T13:55:59.933Z,97708.16
2018-09-08T13:58:28.881Z,97708.70
2018-09-08T14:00:57.823Z,97708.62
2018-09-08T14:03:27.046Z,97708.05
2018-09-08T14:05:56.024Z,97708.92
2018-09-08T14:08:25.569Z,97707.46
2018-09-08T14:10:54.911Z,97706.80
2018-09-08T14:13:24.451Z,97707.03
2018-09-08T14:15:55.786Z,97707.61
2018-09-08T14:18:25.299Z,97709.75
2018-09-08T14:20:54.201Z,97713.81
2018-09-08T14:23:23.599Z,97711.04
2018-09-08T14:25:52.670Z,97711.14
2018-09-08T14:28:22.993Z,97710.37
2018-09-08T14:30:52.137Z,97706.82
2018-09-08T14:33:21.139Z,97698.91
2018-09-08T14:35:50.080Z,97707.41
2018-09-08T14:38:20.192Z,97709.66
2018-09-08T14:40:49.214Z,97708.50
2018-09-08T14:43:18.175Z,97710.23
2018-09-08T14:45:47.152Z,97711.04
2018-09-08T14:48:16.122Z,97713.67
2018-09-08T14:50:45.983Z,97708.38
2018-09-08T14:53:15.216Z,97709.06
2018-09-08T14:55:44.254Z,97711.10
2018-09-08T14:58:13.336Z,97709.13
2018-09-08T15:00:42.480Z,97709.84
2018-09-08T15:03:11.425Z,97713.05
2018-09-08T15:05:40.398Z,97718.98
2018-09-08T15:08:09.468Z,97725.20
2018-09-08T15:10:38.517Z,97712.30
2018-09-08T15:13:07.680Z,97716.38
2018-09-08T15:15:36.700Z,97721.64
2018-09-08T15:18:05.759Z,97722.45
2018-09-08T15:20:34.753Z,97725.77
2018-09-08T15:23:03.842Z,97717.78
2018-09-08T15:25:32.808Z,97716.01
2018-09-08T15:28:01.777Z,97712.94
2018-09-08T15:30:30.922Z,97720.83
2018-09-08T15:33:02.120Z,97726.78
2018-09-08T15:35:31.218Z,97729.52
2018-09-08T15:38:00.523Z,97730.43
2018-09-08T15:40:29.522Z,97728.83
2018-09-08T15:42:58.571Z,97727.45
2018-09-08T15:45:27.711Z,97722.83
2018-09-08T15:47:56.680Z,97715.37
2018-09-08T15:50:25.843Z,97711.31
2018-09-08T15:52:58.725Z,97695.45
2018-09-08T16:02:23.895Z,97696.13
2018-09-08T16:04:52.950Z,97692.53
2018-09-08T16:07:22.048Z,97691.84
2018-09-08T16:09:51.072Z,97687.20
2018-09-08T16:12:20.114Z,97689.00
2018-09-08T16:14:49.133Z,97687.96
2018-09-08T16:17:19.128Z,97698.85
2018-09-08T16:19:48.097Z,97698.09
2018-09-08T16:22:17.113Z,97702.98
2018-09-08T16:24:46.239Z,97699.86
2018-09-08T16:27:15.491Z,97698.42
2018-09-08T16:29:44.493Z,97697.91
2018-09-08T16:32:13.539Z,97703.58
2018-09-08T16:34:42.594Z,97709.05
2018-09-08T16:37:11.678Z,97705.17
2018-09-08T16:39:40.647Z,97701.95
2018-09-08T16:42:09.803Z,97701.89
2018-09-08T16:44:38.774Z,97706.24
2018-09-08T16:47:07.835Z,97704.95
2018-09-08T16:49:36.914Z,97701.69
2018-09-08T16:52:05.980Z,97708.51
2018-09-08T16:54:36.035Z,97703.62
2018-09-08T16:57:05.147Z,97701.28
2018-09-08T16:59:34.135Z,97701.05
2018-09-08T17:02:03.273Z,97707.27
2018-09-08T17:04:32.219Z,97704.73
2018-09-08T17:07:01.272Z,97706.76
2018-09-08T17:09:30.288Z,97703.47
2018-09-08T17:11:59.369Z,97709.79
2018-09-08T17:14:28.449Z,97708.41
2018-09-08T17:16:57.608Z,97708.34
2018-09-08T17:19:33.051Z,97712.80
2018-09-08T17:22:02.116Z,97713.59
2018-09-08T17:24:31.214Z,97710.38
2018-09-08T17:27:00.156Z,97711.84
2018-09-08T17:29:30.183Z,97713.87
2018-09-08T17:31:59.196Z,97718.39
2018-09-08T17:34:28.265Z,97722.36
2018-09-08T17:36:57.631Z,97735.22
2018-09-08T17:39:26.630Z,97735.67
2018-09-08T17:41:55.620Z,97732.48
2018-09-08T17:44:25.230Z,97729.55
2018-09-08T17:46:54.200Z,97723.38
2018-09-08T17:49:23.481Z,97720.60
2018-09-08T17:51:52.556Z,97719.15
2018-09-08T17:54:21.949Z,97717.80
2018-09-08T17:56:50.999Z,97726.08
2018-09-08T17:59:20.029Z,97730.05
2018-09-08T18:01:49.141Z,97735.80
2018-09-08T18:04:18.161Z,97732.44
2018-09-08T18:06:47.305Z,97737.41
2018-09-08T18:09:16.388Z,97733.87
2018-09-08T18:11:45.483Z,97743.25
2018-09-08T18:14:14.676Z,97753.73
2018-09-08T18:16:43.847Z,97766.77
2018-09-08T18:19:12.939Z,97749.46
2018-09-08T18:21:41.934Z,97764.80
2018-09-08T18:24:10.903Z,97765.66
2018-09-08T18:26:40.225Z,97763.98
2018-09-08T18:29:09.488Z,97761.17
2018-09-08T18:31:38.689Z,97761.64
2018-09-08T18:34:07.976Z,97762.39
2018-09-08T18:36:37.079Z,97769.25
2018-09-08T18:39:06.891Z,97778.13
2018-09-08T18:41:36.254Z,97780.13
2018-09-08T18:44:05.330Z,97784.44
2018-09-08T18:46:35.300Z,97778.21
2018-09-08T18:49:05.751Z,97786.35
2018-09-08T18:51:35.089Z,97788.85
2018-09-08T18:54:05.852Z,97792.96
2018-09-08T18:56:34.972Z,97789.20
2018-09-08T18:59:04.217Z,97794.48
2018-09-08T19:01:33.567Z,97795.14
2018-09-08T19:04:02.592Z,97790.80
2018-09-08T19:06:31.527Z,97768.66
2018-09-08T19:09:00.505Z,97794.36
2018-09-08T19:11:29.424Z,97794.06
2018-09-08T19:13:58.392Z,97797.59
2018-09-08T19:16:27.387Z,97799.41
2018-09-08T19:18:56.353Z,97808.36
2018-09-08T19:21:26.136Z,97805.64
2018-09-08T19:24:00.220Z,97804.11
2018-09-08T19:26:29.217Z,97807.55
2018-09-08T19:29:03.165Z,97810.50
2018-09-08T19:31:32.172Z,97806.50
2018-09-08T19:34:01.166Z,97814.34
2018-09-08T19:39:23.994Z,97816.62
2018-09-08T19:41:53.318Z,97818.09
2018-09-08T19:44:23.077Z,97821.36
2018-09-08T19:46:57.334Z,97815.84
2018-09-08T19:49:26.379Z,97823.41
2018-09-08T19:51:55.561Z,97822.66
2018-09-08T19:54:31.301Z,97827.21
2018-09-08T19:59:08.852Z,97823.02
2018-09-08T20:01:37.901Z,97823.26
2018-09-08T20:04:07.718Z,97822.55
2018-09-08T20:06:36.694Z,97824.34
2018-09-08T20:09:06.664Z,97829.06
2018-09-08T20:11:35.650Z,97825.81
2018-09-08T20:14:04.827Z,97832.11
2018-09-08T20:16:33.917Z,97837.69
2018-09-08T20:19:03.013Z,97830.47
2018-09-08T20:21:32.124Z,97835.53
2018-09-08T20:24:01.320Z,97830.94
2018-09-08T20:27:02.378Z,97826.94
2018-09-08T20:29:31.809Z,97828.89
2018-09-08T20:32:01.671Z,97834.23
2018-09-08T20:34:30.671Z,97833.47
2018-09-08T20:37:00.463Z,97829.92
2018-09-08T20:39:29.504Z,97830.67
2018-09-08T20:41:58.420Z,97833.48
2018-09-08T20:44:27.468Z,97842.89
2018-09-08T20:46:56.624Z,97845.48
2018-09-08T20:49:26.033Z,97848.26
2018-09-08T20:51:55.084Z,97850.96
2018-09-08T20:54:24.470Z,97851.41
2018-09-08T20:56:53.907Z,97850.34
2018-09-08T20:59:23.360Z,97859.73
2018-09-08T21:01:52.520Z,97849.20
2018-09-08T21:04:21.874Z,97853.71
2018-09-08T21:06:51.189Z,97853.28
2018-09-08T21:09:20.425Z,97859.18
2018-09-08T21:11:52.663Z,97860.64
2018-09-08T21:14:22.277Z,97860.44
2018-09-08T21:16:51.470Z,97864.28
2018-09-08T21:19:20.877Z,97863.17
2018-09-08T21:21:49.975Z,97867.44
2018-09-08T21:24:30.023Z,97870.36
2018-09-08T21:26:59.213Z,97866.64
2018-09-08T21:29:28.588Z,97862.16
2018-09-08T21:31:57.993Z,97868.61
2018-09-08T21:34:27.867Z,97866.39
2018-09-08T21:36:56.880Z,97871.34
2018-09-08T21:39:27.433Z,97862.48
2018-09-08T21:41:56.997Z,97861.55
2018-09-08T21:45:14.155Z,97864.39
2018-09-08T21:47:43.229Z,97864.88
2018-09-08T21:50:12.416Z,97866.13
2018-09-08T21:52:41.587Z,97873.34
2018-09-08T21:55:11.933Z,97870.12
2018-09-08T21:57:41.066Z,97869.30
2018-09-08T22:00:10.477Z,97869.17
2018-09-08T22:02:39.673Z,97864.70
2018-09-08T22:05:08.932Z,97863.63
2018-09-08T22:07:38.579Z,97865.85
2018-09-08T22:10:11.176Z,97863.58
2018-09-08T22:12:40.413Z,97869.44
2018-09-08T22:15:10.227Z,97868.58
2018-09-08T22:17:39.555Z,97867.05
2018-09-08T22:20:08.837Z,97870.08
2018-09-08T22:22:37.983Z,97871.08
2018-09-08T22:25:49.385Z,97871.94
2018-09-08T22:28:18.656Z,97861.69
2018-09-08T22:30:48.019Z,97866.81
2018-09-08T22:33:17.322Z,97870.86
2018-09-08T22:35:46.329Z,97867.81
2018-09-08T22:38:15.630Z,97873.22
2018-09-08T22:40:44.802Z,97877.31
2018-09-08T22:43:17.603Z,97877.66
2018-09-08T22:45:50.777Z,97882.33
2018-09-08T22:48:20.002Z,97881.59
2018-09-08T22:50:49.052Z,97879.94
2018-09-08T22:53:18.146Z,97879.83
2018-09-08T22:55:47.353Z,97892.32
2018-09-08T22:58:16.347Z,97901.11
2018-09-08T23:01:07.629Z,97908.00
2018-09-08T23:03:37.824Z,97904.39
2018-09-08T23:06:07.903Z,97914.51
2018-09-08T23:08:37.457Z,97914.51
2018-09-08T23:11:06.622Z,97902.47
2018-09-08T23:13:35.755Z,97902.95
2018-09-08T23:16:04.965Z,97908.23
2018-09-08T23:18:34.987Z,97908.14
2018-09-08T23:21:04.259Z,97901.99
2018-09-08T23:23:33.669Z,97904.27
2018-09-08T23:26:03.032Z,97910.59
2018-09-08T23:28:32.253Z,97914.42
2018-09-08T23:31:01.502Z,97918.02
2018-09-08T23:33:34.702Z,97918.12
2018-09-08T23:36:04.140Z,97920.93
2018-09-08T23:38:33.801Z,97919.62
2018-09-08T23:41:03.056Z,97911.47
2018-09-08T23:43:32.132Z,97913.39
2018-09-08T23:46:01.384Z,97916.70
2018-09-08T23:48:30.778Z,97920.00
2018-09-08T23:51:03.192Z,97926.27
2018-09-08T23:53:32.471Z,97918.92
2018-09-08T23:56:04.673Z,97922.47
2018-09-08T23:58:33.964Z,97923.84
